Time;durP1;ratioP1;P1;durP2;ratioP2;P2;SDS_P1;SDS_P2;PMS_P1;PMS_P2;Temp;Humidity;BMP_temperature;BMP_pressure;BME280_temperature;BME280_humidity;BME280_pressure;Samples;Min_cycle;Max_cycle;Signal;HPM_P1;HPM_P2
2023/07/27 00:00:45;;;;;;;;;2.00;2.00;;;;;-143.47;100.00;63865.75;2095762;28;46422;-46
2023/07/27 00:01:45;;;;;;;;;1.00;1.00;;;;;-143.47;100.00;63865.75;2095799;28;46389;-46
2023/07/27 00:02:45;;;;;;;;;0.33;0.00;;;;;-143.47;100.00;63865.75;2096412;28;46718;-47
2023/07/27 00:03:46;;;;;;;;;1.33;1.33;;;;;-143.47;100.00;63865.75;2094471;28;46676;-46
2023/07/27 00:04:46;;;;;;;;;1.67;1.67;;;;;-143.47;100.00;63865.75;2096592;28;46662;-47
2023/07/27 00:05:46;;;;;;;;;1.67;1.67;;;;;-143.47;100.00;63865.75;2097144;28;46787;-48
2023/07/27 00:06:47;;;;;;;;;1.00;1.00;;;;;-143.47;100.00;63865.75;2095430;28;46586;-47
2023/07/27 00:07:47;;;;;;;;;1.00;1.00;;;;;-143.47;100.00;63865.75;2098347;28;46949;-46
2023/07/27 00:08:47;;;;;;;;;1.33;1.33;;;;;-143.47;100.00;63865.75;2095388;28;46531;-46
2023/07/27 00:09:48;;;;;;;;;1.00;1.00;;;;;-143.47;100.00;63865.75;2096514;28;46614;-48
2023/07/27 00:10:48;;;;;;;;;0.00;0.00;;;;;-143.47;100.00;63865.75;2096689;28;46835;-47
2023/07/27 00:11:49;;;;;;;;;1.00;1.00;;;;;-143.47;100.00;63865.75;2093753;28;46443;-47
2023/07/27 00:12:50;;;;;;;;;1.00;1.00;;;;;-143.47;100.00;63865.75;2096425;28;45978;-48
2023/07/27 00:13:50;;;;;;;;;0.67;0.67;;;;;-143.47;100.00;63865.75;2094133;28;46121;-48
2023/07/27 00:14:51;;;;;;;;;1.00;1.00;;;;;-143.47;100.00;63865.75;2095686;28;46289;-46
2023/07/27 00:15:51;;;;;;;;;1.00;0.33;;;;;-143.47;100.00;63865.75;2096497;28;46326;-51
2023/07/27 00:16:51;;;;;;;;;1.00;1.00;;;;;-143.47;100.00;63865.75;2094695;28;46372;-49
2023/07/27 00:17:52;;;;;;;;;1.00;1.00;;;;;-143.47;100.00;63865.75;2094102;28;46274;-47
2023/07/27 00:18:52;;;;;;;;;2.00;0.67;;;;;-143.47;100.00;63865.75;2096343;28;46186;-48
2023/07/27 00:19:52;;;;;;;;;0.33;0.33;;;;;-143.47;100.00;63865.75;2096468;28;46376;-45
2023/07/27 00:20:53;;;;;;;;;1.00;0.00;;;;;-143.47;100.00;63865.75;2087706;28;46138;-47
2023/07/27 00:21:53;;;;;;;;;1.67;1.00;;;;;-143.47;100.00;63865.75;2084326;28;46525;-45
2023/07/27 00:22:53;;;;;;;;;1.33;1.00;;;;;-143.47;100.00;63865.75;2096315;28;46653;-49
2023/07/27 00:23:54;;;;;;;;;1.00;1.00;;;;;-143.47;100.00;63865.75;2096075;28;45663;-48
2023/07/27 00:24:54;;;;;;;;;1.00;1.00;;;;;-143.47;100.00;63865.75;2096705;28;46806;-49
2023/07/27 00:25:55;;;;;;;;;1.00;1.00;;;;;-143.47;100.00;63865.75;2095268;28;46214;-47
2023/07/27 00:26:56;;;;;;;;;0.00;0.00;;;;;-143.47;100.00;63865.75;2082861;28;46886;-47
2023/07/27 00:27:56;;;;;;;;;4.00;1.33;;;;;-143.47;100.00;63865.75;2091811;28;46444;-51
2023/07/27 00:28:56;;;;;;;;;0.33;0.33;;;;;-143.47;100.00;63865.75;2095842;28;46630;-49
2023/07/27 00:29:57;;;;;;;;;0.00;0.00;;;;;-143.47;100.00;63865.75;2096512;28;46728;-47
2023/07/27 00:30:57;;;;;;;;;1.00;1.00;;;;;-143.47;100.00;63865.75;2092963;28;45908;-48
2023/07/27 00:31:57;;;;;;;;;1.00;1.00;;;;;-143.47;100.00;63865.75;2091596;28;46291;-46
2023/07/27 00:32:57;;;;;;;;;2.00;2.00;;;;;-143.47;100.00;63865.75;2094974;28;46775;-47
2023/07/27 00:33:58;;;;;;;;;0.67;0.67;;;;;-143.47;100.00;63865.75;2096265;28;46577;-50
2023/07/27 00:34:58;;;;;;;;;1.00;1.00;;;;;-143.47;100.00;63865.75;2096972;28;46339;-49
2023/07/27 00:35:59;;;;;;;;;2.00;2.00;;;;;-143.47;100.00;63865.75;2093733;28;46828;-47
2023/07/27 00:37:00;;;;;;;;;1.00;1.00;;;;;-143.47;100.00;63865.75;2096299;28;46326;-46
2023/07/27 00:38:00;;;;;;;;;1.33;1.00;;;;;-143.47;100.00;63865.75;2095929;28;46413;-48
2023/07/27 00:39:00;;;;;;;;;0.33;0.33;;;;;-143.47;100.00;63865.75;2096654;28;46634;-46
2023/07/27 00:40:01;;;;;;;;;1.00;1.00;;;;;-143.47;100.00;63865.75;2095467;28;46656;-49
2023/07/27 00:41:01;;;;;;;;;0.67;0.67;;;;;-143.47;100.00;63865.75;2092531;28;46650;-47
2023/07/27 00:42:01;;;;;;;;;1.00;0.33;;;;;-143.47;100.00;63865.75;2092937;28;46157;-48
2023/07/27 00:43:02;;;;;;;;;0.00;0.00;;;;;-143.47;100.00;63865.75;2096094;28;47025;-48
2023/07/27 00:44:02;;;;;;;;;0.00;0.00;;;;;-143.47;100.00;63865.75;2096408;28;46626;-49
2023/07/27 00:45:03;;;;;;;;;1.00;1.00;;;;;-143.47;100.00;63865.75;2096196;28;46471;-49
2023/07/27 00:46:03;;;;;;;;;1.00;1.00;;;;;-143.47;100.00;63865.75;2101776;28;46924;-46
2023/07/27 00:47:05;;;;;;;;;0.00;0.00;;;;;-143.47;100.00;63865.75;2104428;28;46119;-47
2023/07/27 00:48:06;;;;;;;;;0.00;0.00;;;;;-143.47;100.00;63865.75;2089714;28;47000;-48
2023/07/27 00:49:07;;;;;;;;;1.00;1.00;;;;;-143.47;100.00;63865.75;2095259;28;46700;-48
2023/07/27 00:50:08;;;;;;;;;1.00;0.75;;;;;-143.47;100.00;63865.75;2095781;28;46689;-47
2023/07/27 00:51:09;;;;;;;;;0.00;0.00;;;;;-143.47;100.00;63865.75;2112903;27;46445;-46
2023/07/27 00:52:09;;;;;;;;;0.00;0.00;;;;;-143.47;100.00;63865.75;2110213;27;46589;-48
2023/07/27 00:53:10;;;;;;;;;1.33;1.00;;;;;-143.47;100.00;63865.75;2095936;28;46454;-46
2023/07/27 00:54:11;;;;;;;;;0.33;0.33;;;;;-143.47;100.00;63865.75;2096245;28;46716;-48
2023/07/27 00:55:11;;;;;;;;;0.67;0.67;;;;;-143.47;100.00;63865.75;2096339;28;46544;-48
2023/07/27 00:56:11;;;;;;;;;0.00;0.00;;;;;-143.47;100.00;63865.75;2096161;28;46911;-48
2023/07/27 00:57:12;;;;;;;;;0.00;0.00;;;;;-143.47;100.00;63865.75;2096486;28;46593;-48
2023/07/27 00:58:12;;;;;;;;;1.00;1.00;;;;;-143.47;100.00;63865.75;2095823;28;46561;-48
2023/07/27 00:59:13;;;;;;;;;1.00;1.00;;;;;-143.47;100.00;63865.75;2096056;28;46336;-49
2023/07/27 01:00:14;;;;;;;;;0.33;0.33;;;;;-143.47;100.00;63865.75;2096000;28;46349;-46
2023/07/27 01:01:15;;;;;;;;;0.75;0.75;;;;;-143.47;100.00;63865.75;2096398;28;46800;-47
2023/07/27 01:02:16;;;;;;;;;0.50;0.50;;;;;-143.47;100.00;63865.75;2096277;28;46437;-47
2023/07/27 01:03:17;;;;;;;;;3.00;1.00;;;;;-143.47;100.00;63865.75;2112521;27;46247;-48
2023/07/27 01:04:17;;;;;;;;;1.33;1.33;;;;;-143.47;100.00;63865.75;2112387;27;46283;-46
2023/07/27 01:05:18;;;;;;;;;1.00;1.00;;;;;-143.47;100.00;63865.75;2096128;28;46672;-48
2023/07/27 01:06:18;;;;;;;;;1.00;1.00;;;;;-143.47;100.00;63865.75;2094489;28;46372;-48
2023/07/27 01:07:18;;;;;;;;;0.00;0.00;;;;;-143.47;100.00;63865.75;2096045;28;46381;-48
2023/07/27 01:08:19;;;;;;;;;1.00;1.00;;;;;-143.47;100.00;63865.75;2095948;28;46174;-52
2023/07/27 01:09:19;;;;;;;;;0.67;0.67;;;;;-143.47;100.00;63865.75;2096146;28;45596;-50
2023/07/27 01:10:27;;;;;;;;;0.00;0.00;;;;;-143.47;100.00;63865.75;2096577;28;46356;-50
2023/07/27 01:11:47;;;;;;;;;1.00;1.00;;;;;-143.47;100.00;63865.75;2096659;28;46792;-47
2023/07/27 01:12:52;;;;;;;;;1.00;1.00;;;;;-143.47;100.00;63865.75;2094752;28;46715;-50
2023/07/27 01:14:13;;;;;;;;;0.50;0.00;;;;;-143.47;100.00;63865.75;2095859;28;46236;-47
2023/07/27 01:15:17;;;;;;;;;0.75;0.75;;;;;-143.47;100.00;63865.75;2095712;28;46814;-49
2023/07/27 01:16:27;;;;;;;;;1.00;0.50;;;;;-143.47;100.00;63865.75;2093257;28;46754;-50
2023/07/27 01:17:39;;;;;;;;;0.25;0.25;;;;;-143.47;100.00;63865.75;2095976;28;46411;-49
2023/07/27 01:18:59;;;;;;;;;0.50;0.50;;;;;-143.47;100.00;63865.75;2094867;28;46704;-52
2023/07/27 01:20:02;;;;;;;;;0.00;0.00;;;;;-143.47;100.00;63865.75;2095828;28;46743;-48
2023/07/27 01:21:12;;;;;;;;;0.75;0.75;;;;;-143.47;100.00;63865.75;2112227;27;46966;-50
2023/07/27 01:22:40;;;;;;;;;0.00;0.00;;;;;-143.47;100.00;63865.75;2102718;28;46407;-53
2023/07/27 01:24:20;;;;;;;;;1.25;1.25;;;;;-143.47;100.00;63865.75;2089696;28;46537;-52
2023/07/27 01:26:05;;;;;;;;;1.00;1.00;;;;;-143.47;100.00;63865.75;2089291;28;46563;-51
2023/07/27 01:27:08;;;;;;;;;0.75;0.00;;;;;-143.47;100.00;63865.75;2070925;28;46761;-52
2023/07/27 01:29:00;;;;;;;;;0.75;0.75;;;;;-143.47;100.00;63865.75;2070317;28;47148;-51
2023/07/27 01:30:15;;;;;;;;;0.00;0.00;;;;;-143.47;100.00;63865.75;2064356;28;46371;-52
2023/07/27 01:31:20;;;;;;;;;1.00;1.00;;;;;-143.47;100.00;63865.75;2070281;28;46852;-50
2023/07/27 01:32:23;;;;;;;;;1.00;1.00;;;;;-143.47;100.00;63865.75;2069072;28;46871;-50
2023/07/27 01:33:30;;;;;;;;;1.00;1.00;;;;;-143.47;100.00;63865.75;2068517;28;46853;-51
2023/07/27 01:34:34;;;;;;;;;1.00;1.00;;;;;-143.47;100.00;63865.75;2066547;28;46632;-50
2023/07/27 01:36:17;;;;;;;;;0.00;0.00;;;;;-143.47;100.00;63865.75;2065014;28;46313;-50
2023/07/27 01:37:19;;;;;;;;;1.00;0.75;;;;;-143.47;100.00;63865.75;2031635;28;46573;-49
2023/07/27 01:38:21;;;;;;;;;0.75;0.75;;;;;-143.47;100.00;63865.75;2030769;28;46566;-48
2023/07/27 01:39:24;;;;;;;;;0.75;0.25;;;;;-143.47;100.00;63865.75;2030814;29;46467;-49
2023/07/27 01:40:27;;;;;;;;;1.00;1.00;;;;;-143.47;100.00;63865.75;2029271;28;47088;-50
2023/07/27 01:41:30;;;;;;;;;0.75;0.75;;;;;-143.47;100.00;63865.75;2030825;29;46445;-49
2023/07/27 01:42:31;;;;;;;;;0.25;0.25;;;;;-143.47;100.00;63865.75;2030049;28;46258;-51
2023/07/27 01:43:32;;;;;;;;;1.50;1.50;;;;;-143.47;100.00;63865.75;2030643;29;46318;-51
2023/07/27 01:44:33;;;;;;;;;0.00;0.00;;;;;-143.47;100.00;63865.75;2030893;28;46476;-51
2023/07/27 01:45:33;;;;;;;;;0.00;0.00;;;;;-143.47;100.00;63865.75;2026446;29;46236;-50
2023/07/27 01:46:35;;;;;;;;;0.00;0.00;;;;;-143.47;100.00;63865.75;2023111;29;45896;-48
2023/07/27 01:47:36;;;;;;;;;0.25;0.25;;;;;-143.47;100.00;63865.75;2030955;28;46673;-49
2023/07/27 01:48:40;;;;;;;;;0.00;0.00;;;;;-143.47;100.00;63865.75;2030617;28;46770;-47
2023/07/27 01:49:43;;;;;;;;;1.00;1.00;;;;;-143.47;100.00;63865.75;2030493;28;47133;-47
2023/07/27 01:50:45;;;;;;;;;0.00;0.00;;;;;-143.47;100.00;63865.75;2031010;28;46564;-47
2023/07/27 01:51:47;;;;;;;;;1.00;1.00;;;;;-143.47;100.00;63865.75;2030405;29;46328;-48
2023/07/27 01:52:48;;;;;;;;;1.00;1.00;;;;;-143.47;100.00;63865.75;2031175;28;46414;-48
2023/07/27 01:53:49;;;;;;;;;1.00;1.00;;;;;-143.47;100.00;63865.75;2030266;28;46147;-46
2023/07/27 01:54:51;;;;;;;;;0.00;0.00;;;;;-143.47;100.00;63865.75;2030895;28;45130;-48
2023/07/27 01:55:53;;;;;;;;;1.00;1.00;;;;;-143.47;100.00;63865.75;2029917;29;46837;-47
2023/07/27 01:56:55;;;;;;;;;0.00;0.00;;;;;-143.47;100.00;63865.75;2030481;29;46476;-47
2023/07/27 01:57:59;;;;;;;;;1.00;1.00;;;;;-143.47;100.00;63865.75;2029345;28;45713;-48
2023/07/27 01:59:01;;;;;;;;;1.00;1.00;;;;;-143.47;100.00;63865.75;2028089;29;46638;-46
2023/07/27 02:00:03;;;;;;;;;1.00;0.75;;;;;-143.47;100.00;63865.75;2030466;28;46989;-48
2023/07/27 02:01:04;;;;;;;;;1.00;0.50;;;;;-143.47;100.00;63865.75;2023000;29;46285;-49
2023/07/27 02:02:05;;;;;;;;;0.25;0.25;;;;;-143.47;100.00;63865.75;2021866;29;46493;-49
2023/07/27 02:03:06;;;;;;;;;0.00;0.00;;;;;-143.47;100.00;63865.75;2030358;28;46427;-52
2023/07/27 02:04:07;;;;;;;;;0.00;0.00;;;;;-143.47;100.00;63865.75;2030495;28;46336;-49
2023/07/27 02:05:09;;;;;;;;;0.00;0.00;;;;;-143.47;100.00;63865.75;2030570;29;46221;-47
2023/07/27 02:06:09;;;;;;;;;1.75;1.75;;;;;-143.47;100.00;63865.75;2031028;28;46774;-46
2023/07/27 02:07:10;;;;;;;;;1.67;0.00;;;;;-143.47;100.00;63865.75;2034032;28;46687;-47
2023/07/27 02:08:10;;;;;;;;;1.00;1.00;;;;;-143.47;100.00;63865.75;2062089;28;46138;-46
2023/07/27 02:09:10;;;;;;;;;1.00;1.00;;;;;-143.47;100.00;63865.75;2094347;28;46813;-48
2023/07/27 02:10:14;;;;;;;;;0.00;0.00;;;;;-143.47;100.00;63865.75;2093483;28;46606;-47
2023/07/27 02:11:19;;;;;;;;;0.00;0.00;;;;;-143.47;100.00;63865.75;2095405;28;46560;-48
2023/07/27 02:12:26;;;;;;;;;0.00;0.00;;;;;-143.47;100.00;63865.75;2095391;28;46012;-47
2023/07/27 02:13:47;;;;;;;;;0.00;0.00;;;;;-143.47;100.00;63865.75;2113117;27;45590;-49
2023/07/27 02:15:01;;;;;;;;;1.25;1.25;;;;;-143.47;100.00;63865.75;2105905;27;46609;-46
2023/07/27 02:16:10;;;;;;;;;1.00;1.00;;;;;-143.47;100.00;63865.75;2092086;28;46240;-47
2023/07/27 02:17:23;;;;;;;;;0.00;0.00;;;;;-143.47;100.00;63865.75;2090002;28;46397;-45
2023/07/27 02:18:27;;;;;;;;;0.00;0.00;;;;;-143.47;100.00;63865.75;2093951;28;46502;-48
2023/07/27 02:19:34;;;;;;;;;0.75;0.75;;;;;-143.47;100.00;63865.75;2096901;28;46452;-47
2023/07/27 02:20:36;;;;;;;;;2.00;2.00;;;;;-143.47;100.00;63865.75;2094949;28;47132;-47
2023/07/27 02:21:38;;;;;;;;;4.00;3.25;;;;;-143.47;100.00;63865.75;2096256;28;46455;-47
2023/07/27 02:22:40;;;;;;;;;2.75;1.75;;;;;-143.47;100.00;63865.75;2093124;28;46948;-48
2023/07/27 02:23:41;;;;;;;;;1.00;1.00;;;;;-143.47;100.00;63865.75;2091332;28;46985;-47
2023/07/27 02:24:42;;;;;;;;;2.25;2.25;;;;;-143.47;100.00;63865.75;2093118;28;46267;-47
2023/07/27 02:25:43;;;;;;;;;0.00;0.00;;;;;-143.47;100.00;63865.75;2089266;28;46228;-48
2023/07/27 02:26:43;;;;;;;;;1.00;1.00;;;;;-143.47;100.00;63865.75;2094772;28;46004;-47
2023/07/27 02:27:44;;;;;;;;;0.00;0.00;;;;;-143.47;100.00;63865.75;2096637;28;46629;-48
2023/07/27 02:28:45;;;;;;;;;1.00;1.00;;;;;-143.47;100.00;63865.75;2086557;28;46672;-48
2023/07/27 02:29:45;;;;;;;;;0.67;0.67;;;;;-143.47;100.00;63865.75;2084841;28;46227;-47
2023/07/27 02:30:46;;;;;;;;;1.00;0.00;;;;;-143.47;100.00;63865.75;2095804;28;46107;-47
2023/07/27 02:31:46;;;;;;;;;0.00;0.00;;;;;-143.47;100.00;63865.75;2096094;28;46298;-47
2023/07/27 02:32:46;;;;;;;;;2.00;2.00;;;;;-143.47;100.00;63865.75;2093573;28;46507;-46
2023/07/27 02:33:47;;;;;;;;;0.67;0.67;;;;;-143.47;100.00;63865.75;2095667;28;46351;-46
2023/07/27 02:34:47;;;;;;;;;0.00;0.00;;;;;-143.47;100.00;63865.75;2094669;28;46311;-49
2023/07/27 02:35:47;;;;;;;;;1.00;0.00;;;;;-143.47;100.00;63865.75;2084759;28;46556;-47
2023/07/27 02:36:48;;;;;;;;;0.00;0.00;;;;;-143.47;100.00;63865.75;2086358;28;46225;-47
2023/07/27 02:37:48;;;;;;;;;0.67;0.67;;;;;-143.47;100.00;63865.75;2103591;28;46184;-47
2023/07/27 02:38:48;;;;;;;;;1.00;1.00;;;;;-143.47;100.00;63865.75;2097044;28;46228;-49
2023/07/27 02:39:48;;;;;;;;;1.67;1.67;;;;;-143.47;100.00;63865.75;2090208;28;46302;-47
2023/07/27 02:40:49;;;;;;;;;0.00;0.00;;;;;-143.47;100.00;63865.75;2095606;28;46600;-47
2023/07/27 02:41:49;;;;;;;;;0.33;0.33;;;;;-143.47;100.00;63865.75;2094363;28;46723;-45
2023/07/27 02:42:50;;;;;;;;;0.00;0.00;;;;;-143.47;100.00;63865.75;2094485;28;45814;-47
2023/07/27 02:43:50;;;;;;;;;0.00;0.00;;;;;-143.47;100.00;63865.75;2090085;28;45945;-47
2023/07/27 02:44:50;;;;;;;;;0.00;0.00;;;;;-143.47;100.00;63865.75;2086552;28;46467;-48
2023/07/27 02:45:57;;;;;;;;;0.67;0.67;;;;;-143.47;100.00;63865.75;2086278;28;46180;-48
2023/07/27 02:46:57;;;;;;;;;0.00;0.00;;;;;-143.47;100.00;63865.75;2089644;28;46616;-51
2023/07/27 02:47:57;;;;;;;;;1.00;0.00;;;;;-143.47;100.00;63865.75;2097700;28;46266;-52
2023/07/27 02:48:58;;;;;;;;;0.00;0.00;;;;;-143.47;100.00;63865.75;2095571;28;46228;-47
2023/07/27 02:49:58;;;;;;;;;0.00;0.00;;;;;-143.47;100.00;63865.75;2094682;28;45767;-47
2023/07/27 02:50:58;;;;;;;;;0.00;0.00;;;;;-143.47;100.00;63865.75;2093548;28;46621;-50
2023/07/27 02:51:59;;;;;;;;;0.33;0.00;;;;;-143.47;100.00;63865.75;2095352;28;46494;-47
2023/07/27 02:52:59;;;;;;;;;0.00;0.00;;;;;-143.47;100.00;63865.75;2094669;28;46589;-50
2023/07/27 02:53:59;;;;;;;;;0.00;0.00;;;;;-143.47;100.00;63865.75;2092080;28;46634;-49
2023/07/27 02:54:59;;;;;;;;;0.00;0.00;;;;;-143.47;100.00;63865.75;2092208;28;46645;-47
2023/07/27 02:56:02;;;;;;;;;0.00;0.00;;;;;-143.47;100.00;63865.75;2095375;28;47113;-47
2023/07/27 02:57:03;;;;;;;;;0.00;0.00;;;;;-143.47;100.00;63865.75;2095682;28;46669;-47
2023/07/27 02:58:03;;;;;;;;;0.00;0.00;;;;;-143.47;100.00;63865.75;2095335;28;47223;-47
2023/07/27 02:59:03;;;;;;;;;0.00;0.00;;;;;-143.47;100.00;63865.75;2096256;28;46605;-47
2023/07/27 03:00:04;;;;;;;;;0.00;0.00;;;;;-143.47;100.00;63865.75;2097107;28;46775;-47
2023/07/27 03:01:05;;;;;;;;;0.50;0.50;;;;;-143.47;100.00;63865.75;2096840;28;46431;-46
2023/07/27 03:02:05;;;;;;;;;0.33;0.33;;;;;-143.47;100.00;63865.75;2096885;28;46507;-46
2023/07/27 03:03:05;;;;;;;;;0.00;0.00;;;;;-143.47;100.00;63865.75;2097071;28;46375;-48
2023/07/27 03:04:06;;;;;;;;;0.00;0.00;;;;;-143.47;100.00;63865.75;2096824;28;46002;-46
2023/07/27 03:05:06;;;;;;;;;0.00;0.00;;;;;-143.47;100.00;63865.75;2095636;28;46587;-47
2023/07/27 03:06:07;;;;;;;;;0.00;0.00;;;;;-143.47;100.00;63865.75;2094587;28;47600;-47
2023/07/27 03:07:07;;;;;;;;;0.00;0.00;;;;;-143.47;100.00;63865.75;2092281;28;46785;-47
2023/07/27 03:08:07;;;;;;;;;0.00;0.00;;;;;-143.47;100.00;63865.75;2091939;28;46267;-47
2023/07/27 03:09:08;;;;;;;;;0.00;0.00;;;;;-143.47;100.00;63865.75;2096653;28;46208;-48
2023/07/27 03:10:09;;;;;;;;;0.67;0.67;;;;;-143.47;100.00;63865.75;2095990;28;46225;-48
2023/07/27 03:11:09;;;;;;;;;0.00;0.00;;;;;-143.47;100.00;63865.75;2096830;28;46265;-48
2023/07/27 03:12:09;;;;;;;;;0.00;0.00;;;;;-143.47;100.00;63865.75;2096883;28;46523;-51
2023/07/27 03:13:10;;;;;;;;;0.00;0.00;;;;;-143.47;100.00;63865.75;2096660;28;46622;-49
2023/07/27 03:14:10;;;;;;;;;0.00;0.00;;;;;-143.47;100.00;63865.75;2096686;28;46638;-48
2023/07/27 03:15:10;;;;;;;;;1.67;0.67;;;;;-143.47;100.00;63865.75;2096983;28;46697;-52
2023/07/27 03:16:11;;;;;;;;;0.00;0.00;;;;;-143.47;100.00;63865.75;2094602;28;46174;-50
2023/07/27 03:17:11;;;;;;;;;0.00;0.00;;;;;-143.47;100.00;63865.75;2096990;28;46238;-48
2023/07/27 03:18:12;;;;;;;;;0.00;0.00;;;;;-143.47;100.00;63865.75;2094717;28;46798;-50
2023/07/27 03:19:12;;;;;;;;;1.00;1.00;;;;;-143.47;100.00;63865.75;2096127;28;46277;-49
2023/07/27 03:20:13;;;;;;;;;0.00;0.00;;;;;-143.47;100.00;63865.75;2096386;28;46463;-48
2023/07/27 03:21:13;;;;;;;;;0.33;0.00;;;;;-143.47;100.00;63865.75;2096795;28;45954;-50
2023/07/27 03:22:14;;;;;;;;;0.00;0.00;;;;;-143.47;100.00;63865.75;2096211;28;46335;-48
2023/07/27 03:23:14;;;;;;;;;0.00;0.00;;;;;-143.47;100.00;63865.75;2097200;28;46776;-47
2023/07/27 03:24:16;;;;;;;;;0.00;0.00;;;;;-143.47;100.00;63865.75;2087258;28;46133;-48
2023/07/27 03:25:16;;;;;;;;;0.00;0.00;;;;;-143.47;100.00;63865.75;2087706;28;46414;-47
2023/07/27 03:26:17;;;;;;;;;0.00;0.00;;;;;-143.47;100.00;63865.75;2097028;28;46461;-45
2023/07/27 03:27:17;;;;;;;;;0.00;0.00;;;;;-143.47;100.00;63865.75;2113255;27;46224;-49
2023/07/27 03:28:17;;;;;;;;;0.00;0.00;;;;;-143.47;100.00;63865.75;2112787;27;46692;-46
2023/07/27 03:29:18;;;;;;;;;0.00;0.00;;;;;-143.47;100.00;63865.75;2096763;27;47038;-48
2023/07/27 03:30:18;;;;;;;;;0.00;0.00;;;;;-143.47;100.00;63865.75;2096047;28;46223;-47
2023/07/27 03:31:26;;;;;;;;;0.00;0.00;;;;;-143.47;100.00;63865.75;2096992;28;46808;-45
2023/07/27 03:32:27;;;;;;;;;0.00;0.00;;;;;-143.47;100.00;63865.75;2096379;28;46927;-47
2023/07/27 03:33:27;;;;;;;;;0.00;0.00;;;;;-143.47;100.00;63865.75;2097391;28;46847;-49
2023/07/27 03:34:27;;;;;;;;;0.00;0.00;;;;;-143.47;100.00;63865.75;2094028;28;46638;-47
2023/07/27 03:35:32;;;;;;;;;0.00;0.00;;;;;-143.47;100.00;63865.75;2098317;28;46289;-47
2023/07/27 03:36:32;;;;;;;;;0.00;0.00;;;;;-143.47;100.00;63865.75;2094424;28;46667;-49
2023/07/27 03:37:32;;;;;;;;;0.00;0.00;;;;;-143.47;100.00;63865.75;2097862;28;47125;-48
2023/07/27 03:38:33;;;;;;;;;0.00;0.00;;;;;-143.47;100.00;63865.75;2094753;28;46254;-46
2023/07/27 03:39:33;;;;;;;;;0.00;0.00;;;;;-143.47;100.00;63865.75;2096652;28;46902;-48
2023/07/27 03:40:33;;;;;;;;;1.00;0.00;;;;;-143.47;100.00;63865.75;2098344;28;46404;-49
2023/07/27 03:41:34;;;;;;;;;0.00;0.00;;;;;-143.47;100.00;63865.75;2097732;28;46541;-51
2023/07/27 03:42:34;;;;;;;;;0.00;0.00;;;;;-143.47;100.00;63865.75;2092580;28;46194;-49
2023/07/27 03:43:34;;;;;;;;;0.00;0.00;;;;;-143.47;100.00;63865.75;2087694;28;46112;-47
2023/07/27 03:44:34;;;;;;;;;0.00;0.00;;;;;-143.47;100.00;63865.75;2086709;28;46659;-47
2023/07/27 03:45:35;;;;;;;;;0.00;0.00;;;;;-143.47;100.00;63865.75;2096739;28;46572;-47
2023/07/27 03:46:35;;;;;;;;;0.00;0.00;;;;;-143.47;100.00;63865.75;2095688;28;46270;-48
2023/07/27 03:47:35;;;;;;;;;0.00;0.00;;;;;-143.47;100.00;63865.75;2097537;28;46529;-47
2023/07/27 03:48:36;;;;;;;;;0.00;0.00;;;;;-143.47;100.00;63865.75;2094827;28;46517;-47
2023/07/27 03:49:37;;;;;;;;;0.00;0.00;;;;;-143.47;100.00;63865.75;2090459;28;46305;-48
2023/07/27 03:50:37;;;;;;;;;0.00;0.00;;;;;-143.47;100.00;63865.75;2094394;28;46340;-46
2023/07/27 03:51:37;;;;;;;;;0.00;0.00;;;;;-143.47;100.00;63865.75;2097115;28;46292;-46
2023/07/27 03:52:38;;;;;;;;;0.00;0.00;;;;;-143.47;100.00;63865.75;2096501;28;46767;-47
2023/07/27 03:53:39;;;;;;;;;0.00;0.00;;;;;-143.47;100.00;63865.75;2097042;28;46444;-47
2023/07/27 03:54:40;;;;;;;;;0.75;0.00;;;;;-143.47;100.00;63865.75;2096187;28;46435;-48
2023/07/27 03:55:40;;;;;;;;;0.00;0.00;;;;;-143.47;100.00;63865.75;2097841;28;46109;-45
2023/07/27 03:56:40;;;;;;;;;0.00;0.00;;;;;-143.47;100.00;63865.75;2094742;28;46877;-46
2023/07/27 03:57:41;;;;;;;;;0.00;0.00;;;;;-143.47;100.00;63865.75;2099754;28;46531;-46
2023/07/27 03:58:41;;;;;;;;;0.00;0.00;;;;;-143.47;100.00;63865.75;2095683;27;46680;-45
2023/07/27 03:59:41;;;;;;;;;0.00;0.00;;;;;-143.47;100.00;63865.75;2098191;28;46241;-47
2023/07/27 04:00:42;;;;;;;;;0.00;0.00;;;;;-143.47;100.00;63865.75;2095214;28;46305;-47
2023/07/27 04:01:42;;;;;;;;;0.00;0.00;;;;;-143.47;100.00;63865.75;2097490;28;46644;-51
2023/07/27 04:02:42;;;;;;;;;0.00;0.00;;;;;-143.47;100.00;63865.75;2096020;28;46256;-45
2023/07/27 04:03:43;;;;;;;;;0.00;0.00;;;;;-143.47;100.00;63865.75;2097419;28;46290;-47
2023/07/27 04:04:43;;;;;;;;;0.00;0.00;;;;;-143.47;100.00;63865.75;2095851;28;46337;-47
2023/07/27 04:05:43;;;;;;;;;0.00;0.00;;;;;-143.47;100.00;63865.75;2097115;28;46233;-46
2023/07/27 04:06:45;;;;;;;;;0.00;0.00;;;;;-143.47;100.00;63865.75;2096227;28;46280;-46
2023/07/27 04:07:49;;;;;;;;;0.00;0.00;;;;;-143.47;100.00;63865.75;2096861;28;46398;-47
2023/07/27 04:08:49;;;;;;;;;0.00;0.00;;;;;-143.47;100.00;63865.75;2093189;28;46455;-48
2023/07/27 04:09:50;;;;;;;;;1.00;0.00;;;;;-143.47;100.00;63865.75;2091134;28;46408;-48
2023/07/27 04:10:50;;;;;;;;;0.00;0.00;;;;;-143.47;100.00;63865.75;2095807;28;46172;-48
2023/07/27 04:11:52;;;;;;;;;0.00;0.00;;;;;-143.47;100.00;63865.75;2095251;28;46750;-51
2023/07/27 04:12:52;;;;;;;;;0.00;0.00;;;;;-143.47;100.00;63865.75;2095949;28;46616;-46
2023/07/27 04:13:52;;;;;;;;;0.00;0.00;;;;;-143.47;100.00;63865.75;2096173;28;46466;-48
2023/07/27 04:14:53;;;;;;;;;0.00;0.00;;;;;-143.47;100.00;63865.75;2095924;28;46741;-47
2023/07/27 04:15:53;;;;;;;;;0.67;0.67;;;;;-143.47;100.00;63865.75;2096671;28;46213;-50
2023/07/27 04:16:53;;;;;;;;;0.00;0.00;;;;;-143.47;100.00;63865.75;2096711;28;46362;-48
2023/07/27 04:17:54;;;;;;;;;0.00;0.00;;;;;-143.47;100.00;63865.75;2096523;28;46394;-48
2023/07/27 04:18:54;;;;;;;;;0.00;0.00;;;;;-143.47;100.00;63865.75;2096120;28;46292;-50
2023/07/27 04:19:54;;;;;;;;;0.00;0.00;;;;;-143.47;100.00;63865.75;2086740;28;45983;-49
2023/07/27 04:20:55;;;;;;;;;0.00;0.00;;;;;-143.47;100.00;63865.75;2087830;28;46355;-48
2023/07/27 04:21:55;;;;;;;;;0.00;0.00;;;;;-143.47;100.00;63865.75;2096371;28;46143;-48
2023/07/27 04:22:55;;;;;;;;;0.00;0.00;;;;;-143.47;100.00;63865.75;2096376;28;46857;-47
2023/07/27 04:23:56;;;;;;;;;0.00;0.00;;;;;-143.47;100.00;63865.75;2094996;28;46921;-45
2023/07/27 04:24:56;;;;;;;;;0.00;0.00;;;;;-143.47;100.00;63865.75;2091188;28;46411;-46
2023/07/27 04:25:56;;;;;;;;;0.00;0.00;;;;;-143.47;100.00;63865.75;2096396;28;46253;-47
2023/07/27 04:26:57;;;;;;;;;0.00;0.00;;;;;-143.47;100.00;63865.75;2096662;28;46443;-48
2023/07/27 04:27:57;;;;;;;;;0.00;0.00;;;;;-143.47;100.00;63865.75;2096017;28;46187;-47
2023/07/27 04:28:57;;;;;;;;;0.00;0.00;;;;;-143.47;100.00;63865.75;2097352;28;46140;-48
2023/07/27 04:29:58;;;;;;;;;0.00;0.00;;;;;-143.47;100.00;63865.75;2096258;28;46399;-46
2023/07/27 04:30:58;;;;;;;;;0.00;0.00;;;;;-143.47;100.00;63865.75;2096592;28;46673;-46
2023/07/27 04:31:58;;;;;;;;;0.00;0.00;;;;;-143.47;100.00;63865.75;2096101;28;46299;-48
2023/07/27 04:32:59;;;;;;;;;0.00;0.00;;;;;-143.47;100.00;63865.75;2096307;28;46678;-50
2023/07/27 04:33:59;;;;;;;;;0.33;0.00;;;;;-143.47;100.00;63865.75;2090244;28;46773;-49
2023/07/27 04:34:59;;;;;;;;;0.00;0.00;;;;;-143.47;100.00;63865.75;2096936;28;46317;-47
2023/07/27 04:36:01;;;;;;;;;1.00;0.00;;;;;-143.47;100.00;63865.75;2096358;28;46907;-48
2023/07/27 04:37:03;;;;;;;;;0.00;0.00;;;;;-143.47;100.00;63865.75;2096292;28;46890;-46
2023/07/27 04:38:03;;;;;;;;;0.00;0.00;;;;;-143.47;100.00;63865.75;2095928;28;46699;-47
2023/07/27 04:39:03;;;;;;;;;0.00;0.00;;;;;-143.47;100.00;63865.75;2086751;28;46272;-49
2023/07/27 04:40:04;;;;;;;;;0.00;0.00;;;;;-143.47;100.00;63865.75;2095420;28;46844;-47
2023/07/27 04:41:05;;;;;;;;;0.00;0.00;;;;;-143.47;100.00;63865.75;2086657;28;47214;-48
2023/07/27 04:42:05;;;;;;;;;0.00;0.00;;;;;-143.47;100.00;63865.75;2087694;28;46512;-48
2023/07/27 04:43:05;;;;;;;;;0.00;0.00;;;;;-143.47;100.00;63865.75;2079314;28;46877;-49